Time;durP1;ratioP1;P1;durP2;ratioP2;P2;SDS_P1;SDS_P2;PMS_P1;PMS_P2;Temp;Humidity;BMP_temperature;BMP_pressure;BME280_temperature;BME280_humidity;BME280_pressure;Samples;Min_cycle;Max_cycle;Signal;HPM_P1;HPM_P2
2023/05/25 00:01:43;;;;;;;;;;;;;;;;;;7370030;19;1904;-61
2023/05/25 00:04:15;;;;;;;;;;;;;;;;;;7370974;19;1869;-62
2023/05/25 00:06:44;;;;;;;;;;;;;;;;;;7369895;19;2075;-62
2023/05/25 00:09:12;;;;;;;;;;;;;;;;;;7367716;19;2056;-62
2023/05/25 00:11:40;;;;;;;;;;;;;;;;;;7369644;19;1712;-62
2023/05/25 00:14:09;;;;;;;;;;;;;;;;;;7370400;19;1904;-63
2023/05/25 00:16:39;;;;;;;;;;;;;;;;;;7368802;19;2054;-63
2023/05/25 00:19:09;;;;;;;;;;;;;;;;;;7365864;19;1939;-59
2023/05/25 00:21:37;;;;;;;;;;;;;;;;;;7369605;19;1815;-63
2023/05/25 00:24:05;;;;;;;;;;;;;;;;;;7370395;19;1845;-62
2023/05/25 00:26:33;;;;;;;;;;;;;;;;;;7369098;19;1956;-63
2023/05/25 00:29:01;;;;;;;;;;;;;;;;;;7365032;19;1965;-63
2023/05/25 00:31:31;;;;;;;;;;;;;;;;;;7364982;19;1728;-61
2023/05/25 00:33:59;;;;;;;;;;;;;;;;;;7369405;19;1862;-63
2023/05/25 00:36:27;;;;;;;;;;;;;;;;;;7365359;19;1944;-63
2023/05/25 00:38:55;;;;;;;;;;;;;;;;;;7364995;19;1842;-63
2023/05/25 00:41:23;;;;;;;;;;;;;;;;;;7365439;19;1873;-63
2023/05/25 00:43:52;;;;;;;;;;;;;;;;;;7368961;19;1856;-63
2023/05/25 00:46:21;;;;;;;;;;;;;;;;;;7369341;19;1718;-62
2023/05/25 00:48:49;;;;;;;;;;;;;;;;;;7364916;19;1842;-61
2023/05/25 00:51:17;;;;;;;;;;;;;;;;;;7368359;19;1873;-63
2023/05/25 00:53:45;;;;;;;;;;;;;;;;;;7369460;19;1605;-64
2023/05/25 00:56:13;;;;;;;;;;;;;;;;;;7367690;19;1948;-63
2023/05/25 00:58:42;;;;;;;;;;;;;;;;;;7365156;19;2029;-63
2023/05/25 01:01:11;;;;;;;;;;;;;;;;;;7368498;19;1846;-60
2023/05/25 01:03:39;;;;;;;;;;;;;;;;;;7369041;19;1694;-58
2023/05/25 01:06:07;;;;;;;;;;;;;;;;;;7369532;19;1826;-59
2023/05/25 01:08:35;;;;;;;;;;;;;;;;;;7364103;19;2073;-62
2023/05/25 01:11:03;;;;;;;;;;;;;;;;;;7368297;19;1419;-62
2023/05/25 01:13:32;;;;;;;;;;;;;;;;;;7368125;19;1987;-61
2023/05/25 01:16:00;;;;;;;;;;;;;;;;;;7366302;19;1897;-62
2023/05/25 01:18:28;;;;;;;;;;;;;;;;;;7361778;19;1946;-62
2023/05/25 01:20:56;;;;;;;;;;;;;;;;;;7365634;19;1841;-62
2023/05/25 01:23:24;;;;;;;;;;;;;;;;;;7367193;19;1725;-62
2023/05/25 01:25:52;;;;;;;;;;;;;;;;;;7366772;19;1883;-62
2023/05/25 01:28:20;;;;;;;;;;;;;;;;;;7364128;19;2054;-62
2023/05/25 01:30:49;;;;;;;;;;;;;;;;;;7367761;19;1953;-63
2023/05/25 01:33:17;;;;;;;;;;;;;;;;;;7365230;19;2101;-63
2023/05/25 01:35:45;;;;;;;;;;;;;;;;;;7365162;19;1865;-61
2023/05/25 01:38:14;;;;;;;;;;;;;;;;;;7364462;19;1832;-61
2023/05/25 01:40:42;;;;;;;;;;;;;;;;;;7362673;19;1940;-63
2023/05/25 01:43:10;;;;;;;;;;;;;;;;;;7365551;19;2013;-62
2023/05/25 01:45:38;;;;;;;;;;;;;;;;;;7367444;19;1887;-59
2023/05/25 01:48:06;;;;;;;;;;;;;;;;;;7363413;19;2465;-57
2023/05/25 01:50:35;;;;;;;;;;;;;;;;;;7365533;19;1968;-59
2023/05/25 01:53:03;;;;;;;;;;;;;;;;;;7366538;19;1708;-63
2023/05/25 01:55:31;;;;;;;;;;;;;;;;;;7366819;19;1884;-62
2023/05/25 01:57:59;;;;;;;;;;;;;;;;;;7362807;19;1871;-62
2023/05/25 02:00:30;;;;;;;;;;;;;;;;;;7363594;19;1919;-62
2023/05/25 02:02:58;;;;;;;;;;;;;;;;;;7365446;19;1883;-62
2023/05/25 02:05:27;;;;;;;;;;;;;;;;;;7364574;19;1885;-56
2023/05/25 02:07:55;;;;;;;;;;;;;;;;;;7365520;19;1925;-57
2023/05/25 02:10:23;;;;;;;;;;;;;;;;;;7366401;19;1464;-61
2023/05/25 02:12:51;;;;;;;;;;;;;;;;;;7364692;19;1804;-60
2023/05/25 02:15:20;;;;;;;;;;;;;;;;;;7366536;19;1753;-59
2023/05/25 02:17:48;;;;;;;;;;;;;;;;;;7363251;19;2194;-62
2023/05/25 02:20:16;;;;;;;;;;;;;;;;;;7362724;19;1896;-60
2023/05/25 02:22:44;;;;;;;;;;;;;;;;;;7366550;19;1886;-63
2023/05/25 02:25:12;;;;;;;;;;;;;;;;;;7365811;19;2121;-60
2023/05/25 02:27:40;;;;;;;;;;;;;;;;;;7364003;19;1744;-61
2023/05/25 02:30:09;;;;;;;;;;;;;;;;;;7367344;19;1636;-62
2023/05/25 02:32:37;;;;;;;;;;;;;;;;;;7366053;19;1595;-62
2023/05/25 02:35:05;;;;;;;;;;;;;;;;;;7365341;19;1717;-62
2023/05/25 02:37:34;;;;;;;;;;;;;;;;;;7362844;19;2083;-62
2023/05/25 02:40:02;;;;;;;;;;;;;;;;;;7362753;19;1884;-60
2023/05/25 02:42:30;;;;;;;;;;;;;;;;;;7363819;19;1841;-62
2023/05/25 02:45:00;;;;;;;;;;;;;;;;;;7366007;19;2151;-60
2023/05/25 02:47:29;;;;;;;;;;;;;;;;;;7363195;19;1745;-62
2023/05/25 02:49:57;;;;;;;;;;;;;;;;;;7363276;19;1821;-61
2023/05/25 02:52:26;;;;;;;;;;;;;;;;;;7359878;19;2001;-62
2023/05/25 02:54:54;;;;;;;;;;;;;;;;;;7370480;19;1803;-62
2023/05/25 02:57:30;;;;;;;;;;;;;;;;;;7368118;19;1965;-62
2023/05/25 02:59:59;;;;;;;;;;;;;;;;;;7370639;19;2074;-63
2023/05/25 03:02:27;;;;;;;;;;;;;;;;;;7369551;19;1747;-62
2023/05/25 03:04:56;;;;;;;;;;;;;;;;;;7368464;19;1932;-62
2023/05/25 03:07:25;;;;;;;;;;;;;;;;;;7369133;19;1940;-62
2023/05/25 03:09:54;;;;;;;;;;;;;;;;;;7369288;19;1812;-61
2023/05/25 03:12:23;;;;;;;;;;;;;;;;;;7368206;19;2089;-61
2023/05/25 03:14:52;;;;;;;;;;;;;;;;;;7369661;19;1602;-62
2023/05/25 03:17:21;;;;;;;;;;;;;;;;;;7369609;19;1967;-62
2023/05/25 03:19:50;;;;;;;;;;;;;;;;;;7369623;19;1865;-62
2023/05/25 03:22:18;;;;;;;;;;;;;;;;;;7369785;19;1638;-61
2023/05/25 03:24:48;;;;;;;;;;;;;;;;;;7367735;19;1371;-60
2023/05/25 03:27:17;;;;;;;;;;;;;;;;;;7369308;19;1294;-62
2023/05/25 03:29:45;;;;;;;;;;;;;;;;;;7366122;19;783;-60
2023/05/25 03:32:15;;;;;;;;;;;;;;;;;;7369573;19;1924;-62
2023/05/25 03:34:43;;;;;;;;;;;;;;;;;;7368301;19;2090;-62
2023/05/25 03:37:13;;;;;;;;;;;;;;;;;;7370227;19;1884;-63
2023/05/25 03:39:42;;;;;;;;;;;;;;;;;;7368645;19;1846;-63
2023/05/25 03:42:10;;;;;;;;;;;;;;;;;;7369206;19;1839;-62
2023/05/25 03:44:38;;;;;;;;;;;;;;;;;;7368555;19;1912;-62
2023/05/25 03:47:06;;;;;;;;;;;;;;;;;;7369046;19;1802;-62
2023/05/25 03:49:35;;;;;;;;;;;;;;;;;;7367732;19;1705;-62
2023/05/25 03:52:04;;;;;;;;;;;;;;;;;;7371023;19;1721;-59
2023/05/25 03:54:33;;;;;;;;;;;;;;;;;;7366686;19;1949;-62
2023/05/25 03:57:02;;;;;;;;;;;;;;;;;;7368042;19;1744;-62
2023/05/25 03:59:31;;;;;;;;;;;;;;;;;;7369864;19;1857;-62
2023/05/25 04:01:59;;;;;;;;;;;;;;;;;;7367402;19;762;-62
2023/05/25 04:04:29;;;;;;;;;;;;;;;;;;7365183;19;761;-61
2023/05/25 04:06:57;;;;;;;;;;;;;;;;;;7366638;19;1926;-61
2023/05/25 04:09:26;;;;;;;;;;;;;;;;;;7365893;19;1515;-61
2023/05/25 04:11:54;;;;;;;;;;;;;;;;;;7366732;19;1869;-60
2023/05/25 04:14:22;;;;;;;;;;;;;;;;;;7368554;19;1763;-60
2023/05/25 04:16:50;;;;;;;;;;;;;;;;;;7364313;19;717;-59
2023/05/25 04:19:18;;;;;;;;;;;;;;;;;;7362288;19;1857;-60
2023/05/25 04:21:47;;;;;;;;;;;;;;;;;;7365141;19;1973;-62
2023/05/25 04:24:16;;;;;;;;;;;;;;;;;;7367074;19;1644;-60
2023/05/25 04:26:45;;;;;;;;;;;;;;;;;;7363891;19;1968;-61
2023/05/25 04:29:13;;;;;;;;;;;;;;;;;;7363729;19;1946;-60
2023/05/25 04:31:50;;;;;;;;;;;;;;;;;;7366977;19;1757;-62
2023/05/25 04:34:35;;;;;;;;;;;;;;;;;;7367436;19;1737;-61
2023/05/25 04:37:12;;;;;;;;;;;;;;;;;;7367520;19;1771;-61
2023/05/25 04:39:41;;;;;;;;;;;;;;;;;;7366603;19;1854;-62
2023/05/25 04:42:09;;;;;;;;;;;;;;;;;;7362900;19;1967;-62
2023/05/25 04:44:38;;;;;;;;;;;;;;;;;;7366507;19;1735;-62
2023/05/25 04:47:07;;;;;;;;;;;;;;;;;;7368168;19;1693;-60
2023/05/25 04:49:35;;;;;;;;;;;;;;;;;;7363121;19;786;-61
2023/05/25 04:52:03;;;;;;;;;;;;;;;;;;7364878;19;795;-60
2023/05/25 04:54:32;;;;;;;;;;;;;;;;;;7367021;19;1973;-62
2023/05/25 04:57:02;;;;;;;;;;;;;;;;;;7367738;19;1733;-62
2023/05/25 04:59:32;;;;;;;;;;;;;;;;;;7363691;19;1862;-63
2023/05/25 05:02:01;;;;;;;;;;;;;;;;;;7367034;19;2004;-62
2023/05/25 05:04:29;;;;;;;;;;;;;;;;;;7365808;19;1860;-60
2023/05/25 05:06:58;;;;;;;;;;;;;;;;;;7365858;19;1798;-62
2023/05/25 05:09:26;;;;;;;;;;;;;;;;;;7361144;19;2030;-63
2023/05/25 05:11:57;;;;;;;;;;;;;;;;;;7364883;19;1737;-61
2023/05/25 05:14:25;;;;;;;;;;;;;;;;;;7365743;19;1863;-62
2023/05/25 05:16:54;;;;;;;;;;;;;;;;;;7363038;19;2121;-61
2023/05/25 05:19:22;;;;;;;;;;;;;;;;;;7363929;19;1582;-62
2023/05/25 05:21:51;;;;;;;;;;;;;;;;;;7363312;19;884;-62
2023/05/25 05:24:19;;;;;;;;;;;;;;;;;;7367054;19;2110;-58
2023/05/25 05:26:48;;;;;;;;;;;;;;;;;;7367325;19;1746;-58
2023/05/25 05:29:18;;;;;;;;;;;;;;;;;;7362447;19;2017;-60
2023/05/25 05:31:47;;;;;;;;;;;;;;;;;;7367841;19;2247;-62
2023/05/25 05:34:15;;;;;;;;;;;;;;;;;;7366079;19;1928;-60
2023/05/25 05:36:44;;;;;;;;;;;;;;;;;;7366687;19;1744;-63
2023/05/25 05:39:13;;;;;;;;;;;;;;;;;;7359565;19;1977;-63
2023/05/25 05:41:42;;;;;;;;;;;;;;;;;;7362503;19;1866;-62
2023/05/25 05:44:10;;;;;;;;;;;;;;;;;;7364463;19;1905;-61
2023/05/25 05:46:38;;;;;;;;;;;;;;;;;;7363704;19;1768;-63
2023/05/25 05:49:07;;;;;;;;;;;;;;;;;;7359470;19;2106;-63
2023/05/25 05:51:35;;;;;;;;;;;;;;;;;;7364524;19;1972;-63
2023/05/25 05:54:03;;;;;;;;;;;;;;;;;;7367281;19;1650;-62
2023/05/25 05:56:31;;;;;;;;;;;;;;;;;;7363338;19;795;-59
2023/05/25 05:58:59;;;;;;;;;;;;;;;;;;7360139;19;2413;-58
2023/05/25 06:01:28;;;;;;;;;;;;;;;;;;7362410;19;1847;-61
2023/05/25 06:03:56;;;;;;;;;;;;;;;;;;7364284;19;1875;-61
2023/05/25 06:06:24;;;;;;;;;;;;;;;;;;7366110;19;1974;-62
2023/05/25 06:08:52;;;;;;;;;;;;;;;;;;7360568;19;1787;-60
2023/05/25 06:11:21;;;;;;;;;;;;;;;;;;7364185;19;1885;-61
2023/05/25 06:13:49;;;;;;;;;;;;;;;;;;7364563;19;1918;-61
2023/05/25 06:16:17;;;;;;;;;;;;;;;;;;7364643;19;1498;-61
2023/05/25 06:18:45;;;;;;;;;;;;;;;;;;7360160;19;1333;-58
2023/05/25 06:21:13;;;;;;;;;;;;;;;;;;7361153;19;1845;-60
2023/05/25 06:23:42;;;;;;;;;;;;;;;;;;7364588;19;810;-65
2023/05/25 06:26:10;;;;;;;;;;;;;;;;;;7361938;19;783;-58
2023/05/25 06:28:38;;;;;;;;;;;;;;;;;;7364091;19;1341;-61
2023/05/25 06:31:06;;;;;;;;;;;;;;;;;;7370270;19;811;-61
2023/05/25 06:33:35;;;;;;;;;;;;;;;;;;7368810;19;853;-60
2023/05/25 06:36:03;;;;;;;;;;;;;;;;;;7369124;19;771;-60
2023/05/25 06:38:31;;;;;;;;;;;;;;;;;;7366942;19;1353;-64
2023/05/25 06:41:02;;;;;;;;;;;;;;;;;;7367863;19;1854;-64
2023/05/25 06:43:30;;;;;;;;;;;;;;;;;;7369174;19;745;-61
2023/05/25 06:46:17;;;;;;;;;;;;;;;;;;7368140;19;775;-63
2023/05/25 06:48:46;;;;;;;;;;;;;;;;;;7366908;19;1361;-63
2023/05/25 06:51:14;;;;;;;;;;;;;;;;;;7367635;19;786;-62
2023/05/25 06:53:43;;;;;;;;;;;;;;;;;;7370350;19;778;-63
2023/05/25 06:56:11;;;;;;;;;;;;;;;;;;7370517;19;878;-63
2023/05/25 06:58:39;;;;;;;;;;;;;;;;;;7368581;19;1239;-63
2023/05/25 07:01:07;;;;;;;;;;;;;;;;;;7366995;19;1842;-63
2023/05/25 07:03:37;;;;;;;;;;;;;;;;;;7369618;19;879;-64
2023/05/25 07:06:05;;;;;;;;;;;;;;;;;;7371181;19;837;-63
2023/05/25 07:08:33;;;;;;;;;;;;;;;;;;7367503;19;1344;-63
2023/05/25 07:11:01;;;;;;;;;;;;;;;;;;7370135;19;822;-63
2023/05/25 07:13:29;;;;;;;;;;;;;;;;;;7370104;19;768;-62
2023/05/25 07:15:58;;;;;;;;;;;;;;;;;;7370619;19;882;-62
2023/05/25 07:18:26;;;;;;;;;;;;;;;;;;7367800;19;1345;-63
2023/05/25 07:20:54;;;;;;;;;;;;;;;;;;7368967;19;1853;-63
2023/05/25 07:23:22;;;;;;;;;;;;;;;;;;7369803;19;856;-63
2023/05/25 07:25:51;;;;;;;;;;;;;;;;;;7368501;19;798;-62
2023/05/25 07:28:19;;;;;;;;;;;;;;;;;;7366486;19;1307;-63
2023/05/25 07:30:47;;;;;;;;;;;;;;;;;;7368731;19;843;-63
2023/05/25 07:33:15;;;;;;;;;;;;;;;;;;7365681;19;795;-63
2023/05/25 07:35:43;;;;;;;;;;;;;;;;;;7367790;19;759;-61
2023/05/25 07:38:11;;;;;;;;;;;;;;;;;;7365832;19;1325;-63
2023/05/25 07:40:39;;;;;;;;;;;;;;;;;;7365709;19;1838;-61
2023/05/25 07:43:08;;;;;;;;;;;;;;;;;;7368220;19;731;-60
2023/05/25 07:45:36;;;;;;;;;;;;;;;;;;7368041;19;826;-62
2023/05/25 07:48:05;;;;;;;;;;;;;;;;;;7366866;19;1366;-62
2023/05/25 07:50:33;;;;;;;;;;;;;;;;;;7367972;19;806;-61
2023/05/25 07:53:02;;;;;;;;;;;;;;;;;;7367671;19;799;-63
2023/05/25 07:55:30;;;;;;;;;;;;;;;;;;7366923;19;774;-61
2023/05/25 07:57:58;;;;;;;;;;;;;;;;;;7367008;19;1308;-62
2023/05/25 08:00:26;;;;;;;;;;;;;;;;;;7366956;19;1851;-63
2023/05/25 08:02:54;;;;;;;;;;;;;;;;;;7367802;19;843;-62
2023/05/25 08:05:23;;;;;;;;;;;;;;;;;;7367591;19;838;-61
2023/05/25 08:07:51;;;;;;;;;;;;;;;;;;7366138;19;1258;-61
2023/05/25 08:10:19;;;;;;;;;;;;;;;;;;7366970;19;814;-61
2023/05/25 08:12:47;;;;;;;;;;;;;;;;;;7366632;19;785;-63
2023/05/25 08:15:15;;;;;;;;;;;;;;;;;;7367539;19;846;-63
2023/05/25 08:17:43;;;;;;;;;;;;;;;;;;7365645;19;1241;-61
2023/05/25 08:20:11;;;;;;;;;;;;;;;;;;7367155;19;810;-63
2023/05/25 08:22:39;;;;;;;;;;;;;;;;;;7363892;19;1863;-63
2023/05/25 08:25:08;;;;;;;;;;;;;;;;;;7366592;19;812;-63
2023/05/25 08:27:36;;;;;;;;;;;;;;;;;;7365230;19;1285;-61
2023/05/25 08:30:04;;;;;;;;;;;;;;;;;;7366846;19;779;-63
2023/05/25 08:32:32;;;;;;;;;;;;;;;;;;7366041;19;792;-63
2023/05/25 08:35:02;;;;;;;;;;;;;;;;;;7369495;19;1448;-63
2023/05/25 08:37:30;;;;;;;;;;;;;;;;;;7365758;19;1341;-62
2023/05/25 08:40:00;;;;;;;;;;;;;;;;;;7365872;19;798;-61
2023/05/25 08:42:29;;;;;;;;;;;;;;;;;;7363882;19;1850;-63
2023/05/25 08:44:57;;;;;;;;;;;;;;;;;;7366317;19;826;-63
2023/05/25 08:47:25;;;;;;;;;;;;;;;;;;7366133;19;1292;-63
2023/05/25 08:49:53;;;;;;;;;;;;;;;;;;7365882;19;789;-61
2023/05/25 08:52:22;;;;;;;;;;;;;;;;;;7363007;19;867;-60
2023/05/25 08:54:50;;;;;;;;;;;;;;;;;;7365747;19;905;-63
2023/05/25 08:57:18;;;;;;;;;;;;;;;;;;7366247;19;1361;-63
2023/05/25 08:59:46;;;;;;;;;;;;;;;;;;7365766;19;810;-64
2023/05/25 09:02:14;;;;;;;;;;;;;;;;;;7362963;19;1849;-62
2023/05/25 09:04:42;;;;;;;;;;;;;;;;;;7366777;19;767;-63
2023/05/25 09:07:10;;;;;;;;;;;;;;;;;;7365918;19;1275;-62
2023/05/25 09:09:38;;;;;;;;;;;;;;;;;;7365584;19;831;-61
2023/05/25 09:12:14;;;;;;;;;;;;;;;;;;7398136;19;1369;-63
2023/05/25 09:14:44;;;;;;;;;;;;;;;;;;7399737;19;1416;-62
2023/05/25 09:17:12;;;;;;;;;;;;;;;;;;7398108;19;1282;-64
2023/05/25 09:19:40;;;;;;;;;;;;;;;;;;7398403;19;862;-62
2023/05/25 09:22:09;;;;;;;;;;;;;;;;;;7399157;19;827;-63
2023/05/25 09:24:39;;;;;;;;;;;;;;;;;;7398887;19;826;-62
2023/05/25 09:27:08;;;;;;;;;;;;;;;;;;7398767;19;732;-64
2023/05/25 09:29:36;;;;;;;;;;;;;;;;;;7397993;19;795;-64
2023/05/25 09:32:04;;;;;;;;;;;;;;;;;;7396188;19;1849;-64
2023/05/25 09:34:33;;;;;;;;;;;;;;;;;;7398216;19;826;-62
2023/05/25 09:37:01;;;;;;;;;;;;;;;;;;7399246;19;898;-64
2023/05/25 09:39:29;;;;;;;;;;;;;;;;;;7395675;19;1219;-62
2023/05/25 09:41:57;;;;;;;;;;;;;;;;;;7397555;19;875;-64
2023/05/25 09:44:26;;;;;;;;;;;;;;;;;;7397750;19;787;-61
2023/05/25 09:46:54;;;;;;;;;;;;;;;;;;7398300;19;827;-63
2023/05/25 09:49:22;;;;;;;;;;;;;;;;;;7395922;19;1286;-61
2023/05/25 09:51:50;;;;;;;;;;;;;;;;;;7396626;19;1880;-63
2023/05/25 09:54:18;;;;;;;;;;;;;;;;;;7397627;19;808;-64
2023/05/25 09:56:46;;;;;;;;;;;;;;;;;;7398578;19;1232;-65
2023/05/25 09:59:14;;;;;;;;;;;;;;;;;;7395247;19;1235;-62
2023/05/25 10:01:43;;;;;;;;;;;;;;;;;;7397946;19;855;-63
2023/05/25 10:04:11;;;;;;;;;;;;;;;;;;7398086;19;795;-64
2023/05/25 10:06:39;;;;;;;;;;;;;;;;;;7397950;19;937;-62
2023/05/25 10:09:07;;;;;;;;;;;;;;;;;;7395213;19;1278;-61
2023/05/25 10:11:36;;;;;;;;;;;;;;;;;;7395910;19;1849;-62
2023/05/25 10:14:04;;;;;;;;;;;;;;;;;;7397940;19;803;-59
2023/05/25 10:16:33;;;;;;;;;;;;;;;;;;7398511;19;822;-60
2023/05/25 10:19:01;;;;;;;;;;;;;;;;;;7395221;19;1277;-60
2023/05/25 10:21:29;;;;;;;;;;;;;;;;;;7395287;19;805;-61
2023/05/25 10:23:58;;;;;;;;;;;;;;;;;;7368808;19;882;-58
2023/05/25 10:26:26;;;;;;;;;;;;;;;;;;7369313;19;1023;-63
2023/05/25 10:28:54;;;;;;;;;;;;;;;;;;7367244;19;1335;-61
2023/05/25 10:31:26;;;;;;;;;;;;;;;;;;7367821;19;1846;-59
2023/05/25 10:33:55;;;;;;;;;;;;;;;;;;7368926;19;733;-64
2023/05/25 10:36:23;;;;;;;;;;;;;;;;;;7368999;19;802;-61
2023/05/25 10:38:51;;;;;;;;;;;;;;;;;;7364867;19;1342;-60
2023/05/25 10:41:19;;;;;;;;;;;;;;;;;;7368367;19;794;-64
2023/05/25 10:43:47;;;;;;;;;;;;;;;;;;7368731;19;799;-62
2023/05/25 10:46:15;;;;;;;;;;;;;;;;;;7369011;19;802;-61
2023/05/25 10:48:44;;;;;;;;;;;;;;;;;;7366245;19;1286;-63
2023/05/25 10:51:13;;;;;;;;;;;;;;;;;;7366731;19;1865;-65
2023/05/25 10:53:41;;;;;;;;;;;;;;;;;;7368653;19;883;-63
2023/05/25 10:56:09;;;;;;;;;;;;;;;;;;7367901;19;782;-64
2023/05/25 10:58:37;;;;;;;;;;;;;;;;;;7366190;19;1310;-63
2023/05/25 11:01:05;;;;;;;;;;;;;;;;;;7368188;19;862;-63
2023/05/25 11:03:33;;;;;;;;;;;;;;;;;;7367653;19;854;-61
2023/05/25 11:06:01;;;;;;;;;;;;;;;;;;7367632;19;852;-62
2023/05/25 11:08:29;;;;;;;;;;;;;;;;;;7367474;19;1580;-64
2023/05/25 11:10:58;;;;;;;;;;;;;;;;;;7365155;19;1869;-62
2023/05/25 11:13:26;;;;;;;;;;;;;;;;;;7366086;19;811;-63
2023/05/25 11:15:54;;;;;;;;;;;;;;;;;;7368299;19;841;-62
2023/05/25 11:18:22;;;;;;;;;;;;;;;;;;7365076;19;1331;-61
2023/05/25 11:20:50;;;;;;;;;;;;;;;;;;7366993;19;783;-62
2023/05/25 11:23:19;;;;;;;;;;;;;;;;;;7366749;19;865;-63
2023/05/25 11:25:47;;;;;;;;;;;;;;;;;;7367921;19;815;-64
2023/05/25 11:28:15;;;;;;;;;;;;;;;;;;7364806;19;1345;-64
2023/05/25 11:30:43;;;;;;;;;;;;;;;;;;7365738;19;1843;-63
2023/05/25 11:33:12;;;;;;;;;;;;;;;;;;7365897;19;843;-62
2023/05/25 11:35:40;;;;;;;;;;;;;;;;;;7365954;19;834;-63
2023/05/25 11:38:08;;;;;;;;;;;;;;;;;;7365700;19;1348;-64
2023/05/25 11:40:36;;;;;;;;;;;;;;;;;;7366491;19;822;-63
2023/05/25 11:43:05;;;;;;;;;;;;;;;;;;7367533;19;790;-63
2023/05/25 11:45:33;;;;;;;;;;;;;;;;;;7366915;19;861;-61
2023/05/25 11:48:01;;;;;;;;;;;;;;;;;;7365054;19;1274;-62
2023/05/25 11:50:29;;;;;;;;;;;;;;;;;;7366554;19;1339;-63
2023/05/25 11:52:58;;;;;;;;;;;;;;;;;;7366384;19;776;-63
2023/05/25 11:55:26;;;;;;;;;;;;;;;;;;7366468;19;802;-63
2023/05/25 11:57:54;;;;;;;;;;;;;;;;;;7364639;19;1318;-63
2023/05/25 12:00:22;;;;;;;;;;;;;;;;;;7366225;19;815;-63
2023/05/25 12:02:50;;;;;;;;;;;;;;;;;;7365785;19;803;-61
2023/05/25 12:05:18;;;;;;;;;;;;;;;;;;7369324;19;1272;-63
2023/05/25 12:07:47;;;;;;;;;;;;;;;;;;7364573;19;1263;-63
2023/05/25 12:10:15;;;;;;;;;;;;;;;;;;7366048;19;887;-63
2023/05/25 12:12:43;;;;;;;;;;;;;;;;;;7363227;19;1853;-63
2023/05/25 12:15:11;;;;;;;;;;;;;;;;;;7366152;19;802;-61
2023/05/25 12:17:39;;;;;;;;;;;;;;;;;;7365038;19;1269;-63
2023/05/25 12:20:07;;;;;;;;;;;;;;;;;;7364907;19;845;-61
2023/05/25 12:22:36;;;;;;;;;;;;;;;;;;7365179;19;826;-61
2023/05/25 12:25:04;;;;;;;;;;;;;;;;;;7364969;19;855;-62
2023/05/25 12:27:32;;;;;;;;;;;;;;;;;;7364557;19;1310;-62
2023/05/25 12:30:00;;;;;;;;;;;;;;;;;;7364418;19;790;-60
2023/05/25 12:32:28;;;;;;;;;;;;;;;;;;7362435;19;1858;-61
2023/05/25 12:34:56;;;;;;;;;;;;;;;;;;7364206;19;867;-63
2023/05/25 12:37:24;;;;;;;;;;;;;;;;;;7364641;19;1237;-64
2023/05/25 12:39:53;;;;;;;;;;;;;;;;;;7363941;19;859;-64
2023/05/25 12:42:21;;;;;;;;;;;;;;;;;;7365081;19;874;-64
2023/05/25 12:44:49;;;;;;;;;;;;;;;;;;7364808;19;809;-63
2023/05/25 12:47:18;;;;;;;;;;;;;;;;;;7364289;19;1353;-64
2023/05/25 12:49:46;;;;;;;;;;;;;;;;;;7363611;19;854;-62
2023/05/25 12:52:14;;;;;;;;;;;;;;;;;;7362691;19;1853;-63
2023/05/25 12:54:43;;;;;;;;;;;;;;;;;;7364651;19;783;-63
2023/05/25 12:57:11;;;;;;;;;;;;;;;;;;7364665;19;1270;-61
2023/05/25 12:59:39;;;;;;;;;;;;;;;;;;7364139;19;1323;-63
2023/05/25 13:02:08;;;;;;;;;;;;;;;;;;7363844;19;825;-64
2023/05/25 13:04:36;;;;;;;;;;;;;;;;;;7363567;19;801;-63
2023/05/25 13:07:05;;;;;;;;;;;;;;;;;;7363742;19;705;-64
2023/05/25 13:09:33;;;;;;;;;;;;;;;;;;7360329;19;1338;-63
2023/05/25 13:12:02;;;;;;;;;;;;;;;;;;7362118;19;1838;-62
2023/05/25 13:14:30;;;;;;;;;;;;;;;;;;7363694;19;809;-63
2023/05/25 13:16:58;;;;;;;;;;;;;;;;;;7363206;19;857;-63
2023/05/25 13:19:26;;;;;;;;;;;;;;;;;;7359609;19;1378;-64
2023/05/25 13:21:55;;;;;;;;;;;;;;;;;;7362998;19;847;-64
2023/05/25 13:24:23;;;;;;;;;;;;;;;;;;7363938;19;869;-63
2023/05/25 13:26:51;;;;;;;;;;;;;;;;;;7362669;19;820;-61
2023/05/25 13:29:19;;;;;;;;;;;;;;;;;;7360585;19;1275;-63
2023/05/25 13:31:48;;;;;;;;;;;;;;;;;;7362289;19;1891;-63
2023/05/25 13:34:16;;;;;;;;;;;;;;;;;;7366005;19;1473;-62
2023/05/25 13:36:44;;;;;;;;;;;;;;;;;;7363485;19;799;-64
2023/05/25 13:39:13;;;;;;;;;;;;;;;;;;7360024;19;1277;-63
2023/05/25 13:41:42;;;;;;;;;;;;;;;;;;7361457;19;896;-62
2023/05/25 13:44:11;;;;;;;;;;;;;;;;;;7362906;19;836;-62
2023/05/25 13:46:39;;;;;;;;;;;;;;;;;;7364041;19;791;-64
2023/05/25 13:49:07;;;;;;;;;;;;;;;;;;7359830;19;1343;-61
2023/05/25 13:51:37;;;;;;;;;;;;;;;;;;7361055;19;1849;-60
2023/05/25 13:54:05;;;;;;;;;;;;;;;;;;7363779;19;811;-63
2023/05/25 13:56:33;;;;;;;;;;;;;;;;;;7362152;19;799;-63
2023/05/25 13:59:01;;;;;;;;;;;;;;;;;;7366984;19;1333;-61
2023/05/25 14:01:31;;;;;;;;;;;;;;;;;;7369426;19;829;-61
2023/05/25 14:03:59;;;;;;;;;;;;;;;;;;7369307;19;799;-61
2023/05/25 14:06:27;;;;;;;;;;;;;;;;;;7370187;19;897;-62
2023/05/25 14:08:55;;;;;;;;;;;;;;;;;;7367205;19;1286;-60
2023/05/25 14:11:25;;;;;;;;;;;;;;;;;;7368121;19;1853;-59
2023/05/25 14:13:53;;;;;;;;;;;;;;;;;;7369664;19;904;-59
2023/05/25 14:16:21;;;;;;;;;;;;;;;;;;7368737;19;851;-60
2023/05/25 14:18:49;;;;;;;;;;;;;;;;;;7367060;19;1286;-61
2023/05/25 14:21:18;;;;;;;;;;;;;;;;;;7368221;19;807;-62
2023/05/25 14:23:46;;;;;;;;;;;;;;;;;;7368600;19;826;-61
2023/05/25 14:26:14;;;;;;;;;;;;;;;;;;7368635;19;801;-62
2023/05/25 14:28:42;;;;;;;;;;;;;;;;;;7366866;19;1321;-63
2023/05/25 14:31:11;;;;;;;;;;;;;;;;;;7369683;19;775;-63
2023/05/25 14:33:39;;;;;;;;;;;;;;;;;;7367665;19;1863;-59
2023/05/25 14:36:08;;;;;;;;;;;;;;;;;;7369527;19;807;-63
2023/05/25 14:38:36;;;;;;;;;;;;;;;;;;7366800;19;1214;-61
2023/05/25 14:41:04;;;;;;;;;;;;;;;;;;7368306;19;806;-63
2023/05/25 14:43:33;;;;;;;;;;;;;;;;;;7368244;19;827;-62
2023/05/25 14:46:01;;;;;;;;;;;;;;;;;;7368361;19;865;-62
2023/05/25 14:48:29;;;;;;;;;;;;;;;;;;7366029;19;1339;-62
2023/05/25 14:50:59;;;;;;;;;;;;;;;;;;7367589;19;802;-62
2023/05/25 14:53:27;;;;;;;;;;;;;;;;;;7364696;19;1861;-63
2023/05/25 14:55:55;;;;;;;;;;;;;;;;;;7367250;19;871;-64
2023/05/25 14:58:23;;;;;;;;;;;;;;;;;;7365992;19;1319;-64
2023/05/25 15:00:52;;;;;;;;;;;;;;;;;;7367377;19;846;-62
2023/05/25 15:03:20;;;;;;;;;;;;;;;;;;7366334;19;806;-63
2023/05/25 15:05:48;;;;;;;;;;;;;;;;;;7367344;19;819;-61
2023/05/25 15:08:17;;;;;;;;;;;;;;;;;;7364734;19;1234;-63
2023/05/25 15:10:45;;;;;;;;;;;;;;;;;;7367041;19;859;-64
2023/05/25 15:13:13;;;;;;;;;;;;;;;;;;7365530;19;1846;-64
2023/05/25 15:15:41;;;;;;;;;;;;;;;;;;7366726;19;845;-63
2023/05/25 15:18:09;;;;;;;;;;;;;;;;;;7365364;19;1277;-65
2023/05/25 15:20:37;;;;;;;;;;;;;;;;;;7366866;19;887;-64
2023/05/25 15:23:05;;;;;;;;;;;;;;;;;;7367059;19;811;-63
2023/05/25 15:25:33;;;;;;;;;;;;;;;;;;7367027;19;874;-61
2023/05/25 15:28:02;;;;;;;;;;;;;;;;;;7364888;19;1265;-64
2023/05/25 15:30:31;;;;;;;;;;;;;;;;;;7366933;19;1091;-64
2023/05/25 15:32:59;;;;;;;;;;;;;;;;;;7365520;19;1872;-64
2023/05/25 15:35:30;;;;;;;;;;;;;;;;;;7367103;19;791;-61
2023/05/25 15:37:58;;;;;;;;;;;;;;;;;;7366942;19;1278;-63
2023/05/25 15:40:27;;;;;;;;;;;;;;;;;;7366046;19;781;-63
2023/05/25 15:42:55;;;;;;;;;;;;;;;;;;7366256;19;866;-62
2023/05/25 15:45:23;;;;;;;;;;;;;;;;;;7365775;19;854;-62
2023/05/25 15:47:51;;;;;;;;;;;;;;;;;;7363781;19;1759;-64
2023/05/25 15:50:20;;;;;;;;;;;;;;;;;;7366616;19;1885;-62
2023/05/25 15:52:48;;;;;;;;;;;;;;;;;;7366311;19;1853;-64
2023/05/25 15:55:16;;;;;;;;;;;;;;;;;;7370287;19;1726;-64
2023/05/25 15:57:44;;;;;;;;;;;;;;;;;;7364554;19;1961;-64
2023/05/25 16:00:12;;;;;;;;;;;;;;;;;;7368220;19;1811;-65
2023/05/25 16:02:40;;;;;;;;;;;;;;;;;;7367151;19;1607;-63
2023/05/25 16:05:08;;;;;;;;;;;;;;;;;;7367781;19;2156;-63
2023/05/25 16:07:37;;;;;;;;;;;;;;;;;;7365463;19;2091;-63
2023/05/25 16:10:05;;;;;;;;;;;;;;;;;;7364109;19;1961;-63
2023/05/25 16:12:33;;;;;;;;;;;;;;;;;;7366262;19;1854;-63
2023/05/25 16:15:01;;;;;;;;;;;;;;;;;;7364905;19;1965;-62
2023/05/25 16:17:29;;;;;;;;;;;;;;;;;;7365584;19;1683;-63
2023/05/25 16:19:57;;;;;;;;;;;;;;;;;;7363897;19;2016;-63
2023/05/25 16:22:25;;;;;;;;;;;;;;;;;;7364659;19;1814;-64
2023/05/25 16:24:54;;;;;;;;;;;;;;;;;;7367096;19;1872;-64
2023/05/25 16:27:22;;;;;;;;;;;;;;;;;;7369514;19;1799;-62
2023/05/25 16:29:50;;;;;;;;;;;;;;;;;;7367355;19;1453;-62
2023/05/25 16:32:18;;;;;;;;;;;;;;;;;;7363916;19;1834;-61
2023/05/25 16:34:46;;;;;;;;;;;;;;;;;;7369206;19;889;-63
2023/05/25 16:37:14;;;;;;;;;;;;;;;;;;7364517;19;1286;-64
2023/05/25 16:39:42;;;;;;;;;;;;;;;;;;7364248;19;839;-63
2023/05/25 16:42:11;;;;;;;;;;;;;;;;;;7367174;19;2005;-63
2023/05/25 16:44:39;;;;;;;;;;;;;;;;;;7365685;19;1743;-63
2023/05/25 16:47:07;;;;;;;;;;;;;;;;;;7364856;19;1847;-60
2023/05/25 16:49:35;;;;;;;;;;;;;;;;;;7361714;19;1756;-61
2023/05/25 16:52:04;;;;;;;;;;;;;;;;;;7366081;19;1868;-62
2023/05/25 16:54:32;;;;;;;;;;;;;;;;;;7367352;19;1317;-64
2023/05/25 16:57:00;;;;;;;;;;;;;;;;;;7364274;19;1789;-63
2023/05/25 16:59:28;;;;;;;;;;;;;;;;;;7364873;19;1768;-62
2023/05/25 17:01:57;;;;;;;;;;;;;;;;;;7365123;19;1812;-63
2023/05/25 17:04:25;;;;;;;;;;;;;;;;;;7366868;19;1973;-61
2023/05/25 17:06:55;;;;;;;;;;;;;;;;;;7367142;19;1860;-60
2023/05/25 17:09:24;;;;;;;;;;;;;;;;;;7361350;19;2040;-63
2023/05/25 17:11:52;;;;;;;;;;;;;;;;;;7366326;19;1816;-63
2023/05/25 17:14:20;;;;;;;;;;;;;;;;;;7362869;19;1876;-61
2023/05/25 17:16:48;;;;;;;;;;;;;;;;;;7362161;19;2015;-61